De Queen, Arkansas
Current Conditions -  °F | °C
As of 4:53 PM on Saturday 20 Dec 2014 (Local Time) from KDEQ Reporting Station
Overcast Overcast  
Wind Chill: 49°   Ceiling: 3400
Heat Index: 49°   Visibility: 9mi
Dew Point: 43°   Wind: 0mph
Humidity: 80%   Direction: NA
Pressure: 30.2"   Gusts: NA
Location:  34.04°N, 94.34°W
Report Text: KDEQ 202253Z AUTO 00000KT 9SM OVC034 09/06 A3020 RMK AO2 SLP225 T00940061
Loading
Personal Weather Stations






























Interactive Weather Map New forecast layout! Learn more

10-Day Weather Forecast

Advertisements
Track Severe Weather on mobile